Time;durP1;ratioP1;P1;durP2;ratioP2;P2;SDS_P1;SDS_P2;PMS_P1;PMS_P2;Temp;Humidity;BMP_temperature;BMP_pressure;BME280_temperature;BME280_humidity;BME280_pressure;Samples;Min_cycle;Max_cycle;Signal;HPM_P1;HPM_P2
2023/10/29 00:00:11;;;;;;;4.67;1.13;;;;;;;-148.15;100.00;61821.78;4971742;28;20026;-88
2023/10/29 00:02:36;;;;;;;3.47;1.20;;;;;;;-148.15;100.00;61821.78;4973298;28;20027;-88
2023/10/29 00:05:02;;;;;;;2.20;1.00;;;;;;;-148.15;100.00;61821.78;4973361;28;20541;-88
2023/10/29 00:07:28;;;;;;;2.55;1.00;;;;;;;-148.15;100.00;61821.78;4973957;28;20575;-88
2023/10/29 00:09:53;;;;;;;4.67;1.17;;;;;;;-148.15;100.00;61821.78;4973279;28;20031;-88
2023/10/29 00:12:19;;;;;;;2.60;1.17;;;;;;;-148.15;100.00;61821.78;4972735;28;20298;-88
2023/10/29 00:14:44;;;;;;;4.20;0.97;;;;;;;-148.15;100.00;61821.78;4972287;28;20825;-88
2023/10/29 00:17:09;;;;;;;3.50;1.10;;;;;;;-148.15;100.00;61821.78;4972077;28;20442;-88
2023/10/29 00:19:35;;;;;;;2.10;1.00;;;;;;;-148.15;100.00;61821.78;4972391;28;20125;-87
2023/10/29 00:22:00;;;;;;;3.30;1.20;;;;;;;-148.15;100.00;61821.78;4973216;28;20126;-88
2023/10/29 00:24:26;;;;;;;3.33;1.00;;;;;;;-148.15;100.00;61821.78;4971647;28;20041;-88
2023/10/29 00:26:51;;;;;;;1.73;0.90;;;;;;;-148.15;100.00;61821.78;4972735;28;20039;-88
2023/10/29 00:29:16;;;;;;;6.80;0.93;;;;;;;-148.15;100.00;61821.78;4972648;28;20023;-88
2023/10/29 00:31:41;;;;;;;8.97;1.10;;;;;;;-148.15;100.00;61821.78;4972554;28;20121;-88
2023/10/29 00:34:07;;;;;;;2.73;1.00;;;;;;;-148.15;100.00;61821.78;4970881;28;20031;-87
2023/10/29 00:36:32;;;;;;;3.80;1.10;;;;;;;-148.15;100.00;61821.78;4972153;28;20312;-88
2023/10/29 00:38:57;;;;;;;3.17;1.10;;;;;;;-148.15;100.00;61821.78;4971662;28;20055;-88
2023/10/29 00:41:23;;;;;;;5.50;1.10;;;;;;;-148.15;100.00;61821.78;4973094;28;20445;-87
2023/10/29 00:43:48;;;;;;;1.37;0.87;;;;;;;-148.15;100.00;61821.78;4972379;28;20035;-88
2023/10/29 00:46:15;;;;;;;2.47;1.20;;;;;;;-148.15;100.00;61821.78;4972220;28;20030;-88
2023/10/29 00:48:41;;;;;;;2.35;0.82;;;;;;;-148.15;100.00;61821.78;4972188;28;20035;-87
2023/10/29 00:51:07;;;;;;;1.00;0.80;;;;;;;-148.15;100.00;61821.78;4970942;28;20073;-88
2023/10/29 00:53:33;;;;;;;2.13;1.27;;;;;;;-148.15;100.00;61821.78;4968824;28;20050;-88
2023/10/29 00:55:59;;;;;;;3.72;1.30;;;;;;;-148.15;100.00;61821.78;4972480;28;20150;-88
2023/10/29 00:58:26;;;;;;;4.82;1.13;;;;;;;-148.15;100.00;61821.78;4971677;28;20031;-88
2023/10/29 01:00:51;;;;;;;2.70;1.10;;;;;;;-148.15;100.00;61821.78;4972716;28;20037;-88
2023/10/29 01:03:18;;;;;;;4.20;0.97;;;;;;;-148.15;100.00;61821.78;4972184;28;20470;-88
2023/10/29 01:05:47;;;;;;;2.75;1.10;;;;;;;-148.15;100.00;61821.78;4970995;28;20117;-88
2023/10/29 01:08:12;;;;;;;4.53;1.25;;;;;;;-148.15;100.00;61821.78;4969891;28;20423;-88
2023/10/29 01:10:38;;;;;;;2.30;0.83;;;;;;;-148.15;100.00;61821.78;4971703;28;20027;-87
2023/10/29 01:13:04;;;;;;;2.58;0.90;;;;;;;-148.15;100.00;61821.78;4971918;28;20030;-87
2023/10/29 01:15:29;;;;;;;5.13;1.20;;;;;;;-148.15;100.00;61821.78;4971713;28;20027;-87
2023/10/29 01:17:54;;;;;;;3.57;0.90;;;;;;;-148.15;100.00;61821.78;4971007;28;20035;-88
2023/10/29 01:20:20;;;;;;;3.70;0.90;;;;;;;-148.15;100.00;61821.78;4971591;28;20026;-88
2023/10/29 01:22:45;;;;;;;3.17;1.00;;;;;;;-148.15;100.00;61821.78;4971453;28;20367;-87
2023/10/29 01:25:11;;;;;;;4.43;1.17;;;;;;;-148.15;100.00;61821.78;4970811;28;20054;-88
2023/10/29 01:27:37;;;;;;;4.28;1.08;;;;;;;-148.15;100.00;61821.78;4971304;28;20109;-88
2023/10/29 01:30:05;;;;;;;5.17;1.37;;;;;;;-148.15;100.00;61821.78;4971947;28;20443;-87
2023/10/29 01:32:30;;;;;;;1.85;0.95;;;;;;;-148.15;100.00;61821.78;4970982;28;20018;-88
2023/10/29 01:34:55;;;;;;;2.20;1.00;;;;;;;-148.15;100.00;61821.78;4970852;28;20038;-88
2023/10/29 01:37:21;;;;;;;2.17;1.10;;;;;;;-148.15;100.00;61821.78;4971166;28;20034;-89
2023/10/29 01:39:46;;;;;;;4.33;1.20;;;;;;;-148.15;100.00;61821.78;4971748;28;20034;-87
2023/10/29 01:42:11;;;;;;;3.03;0.80;;;;;;;-148.15;100.00;61821.78;4969926;28;20035;-87
2023/10/29 01:44:37;;;;;;;2.77;0.80;;;;;;;-148.15;100.00;61821.78;4971238;28;20037;-87
2023/10/29 01:47:03;;;;;;;3.00;0.90;;;;;;;-148.15;100.00;61821.78;4970484;28;20041;-87
2023/10/29 01:49:28;;;;;;;2.67;1.00;;;;;;;-148.15;100.00;61821.78;4971730;28;20426;-87
2023/10/29 01:51:53;;;;;;;3.80;1.00;;;;;;;-148.15;100.00;61821.78;4978074;28;20550;-88
2023/10/29 01:54:18;;;;;;;2.70;0.90;;;;;;;-148.15;100.00;61821.78;4991422;28;20085;-87
2023/10/29 01:56:44;;;;;;;1.88;0.93;;;;;;;-148.15;100.00;61821.78;4979187;28;20507;-87
2023/10/29 01:59:13;;;;;;;4.27;0.97;;;;;;;-148.15;100.00;61821.78;4968291;28;20133;-88
2023/10/29 02:01:39;;;;;;;3.80;1.00;;;;;;;-148.15;100.00;61821.78;4970677;28;20062;-87
2023/10/29 02:04:08;;;;;;;4.53;0.97;;;;;;;-148.15;100.00;61821.78;4970937;28;20030;-87
2023/10/29 02:06:38;;;;;;;2.97;0.90;;;;;;;-148.15;100.00;61821.78;4970574;28;20051;-87
2023/10/29 02:09:04;;;;;;;4.73;1.30;;;;;;;-148.15;100.00;61821.78;4972024;28;20027;-87
2023/10/29 02:11:29;;;;;;;2.93;1.30;;;;;;;-148.15;100.00;61821.78;4969992;28;20290;-87
2023/10/29 02:13:54;;;;;;;3.37;0.90;;;;;;;-148.15;100.00;61821.78;4971161;28;20538;-87
2023/10/29 02:16:20;;;;;;;4.30;0.90;;;;;;;-148.15;100.00;61821.78;4970677;28;20038;-87
2023/10/29 02:18:45;;;;;;;3.57;1.10;;;;;;;-148.15;100.00;61821.78;4978366;28;20046;-87
2023/10/29 02:21:10;;;;;;;3.83;0.97;;;;;;;-148.15;100.00;61821.78;4969442;28;20019;-87
2023/10/29 02:23:36;;;;;;;2.47;0.90;;;;;;;-148.15;100.00;61821.78;4972735;28;20049;-87
2023/10/29 02:26:02;;;;;;;2.87;0.90;;;;;;;-148.15;100.00;61821.78;4974136;28;20022;-87
2023/10/29 02:28:27;;;;;;;2.45;1.10;;;;;;;-148.15;100.00;61821.78;4974701;28;20023;-88
2023/10/29 02:30:52;;;;;;;1.43;0.80;;;;;;;-148.15;100.00;61821.78;4972624;28;20031;-87
2023/10/29 02:33:18;;;;;;;3.60;0.97;;;;;;;-148.15;100.00;61821.78;4975441;28;20033;-87
2023/10/29 02:35:43;;;;;;;2.37;0.83;;;;;;;-148.15;100.00;61821.78;4973810;28;20133;-87
2023/10/29 02:38:08;;;;;;;3.90;0.90;;;;;;;-148.15;100.00;61821.78;4974474;28;20414;-87
2023/10/29 02:40:33;;;;;;;2.30;0.80;;;;;;;-148.15;100.00;61821.78;4975263;28;20114;-88
2023/10/29 02:42:59;;;;;;;1.93;0.90;;;;;;;-148.15;100.00;61821.78;4974861;28;20058;-87
2023/10/29 02:45:24;;;;;;;2.20;0.90;;;;;;;-148.15;100.00;61821.78;4973868;28;20282;-88
2023/10/29 02:47:50;;;;;;;3.77;0.93;;;;;;;-148.15;100.00;61821.78;4974711;28;20027;-87
2023/10/29 02:50:15;;;;;;;3.40;0.80;;;;;;;-148.15;100.00;61821.78;4973570;28;20034;-87
2023/10/29 02:52:40;;;;;;;3.43;0.97;;;;;;;-148.15;100.00;61821.78;4975388;28;20378;-87
2023/10/29 02:55:06;;;;;;;2.30;0.87;;;;;;;-148.15;100.00;61821.78;4970292;28;20042;-88
2023/10/29 02:57:32;;;;;;;2.25;0.73;;;;;;;-148.15;100.00;61821.78;4974903;28;20019;-87
2023/10/29 03:00:00;;;;;;;2.30;0.67;;;;;;;-148.15;100.00;61821.78;4974399;28;20093;-87
2023/10/29 03:02:25;;;;;;;4.68;0.90;;;;;;;-148.15;100.00;61821.78;4973944;28;20050;-88
2023/10/29 03:04:50;;;;;;;2.87;0.80;;;;;;;-148.15;100.00;61821.78;4974375;28;20567;-88
2023/10/29 03:07:16;;;;;;;1.38;0.90;;;;;;;-148.15;100.00;61821.78;4974519;28;20066;-88
2023/10/29 03:09:41;;;;;;;3.27;1.03;;;;;;;-148.15;100.00;61821.78;4973922;28;20117;-88
2023/10/29 03:12:07;;;;;;;2.20;1.10;;;;;;;-148.15;100.00;61821.78;4972062;28;20037;-89
2023/10/29 03:14:32;;;;;;;2.77;0.90;;;;;;;-148.15;100.00;61821.78;4973898;28;20557;-88
2023/10/29 03:16:57;;;;;;;0.70;0.67;;;;;;;-148.15;100.00;61821.78;4974337;28;20037;-88
2023/10/29 03:19:23;;;;;;;2.60;0.90;;;;;;;-148.15;100.00;61821.78;4973370;28;20030;-88
2023/10/29 03:21:49;;;;;;;1.90;0.70;;;;;;;-148.15;100.00;61821.78;4973037;28;20026;-90
2023/10/29 03:24:15;;;;;;;1.20;0.80;;;;;;;-148.15;100.00;61821.78;4973992;28;20081;-88
2023/10/29 03:26:41;;;;;;;2.40;0.83;;;;;;;-148.15;100.00;61821.78;4972518;28;20323;-88
2023/10/29 03:29:07;;;;;;;1.45;0.68;;;;;;;-148.15;100.00;61821.78;4974187;28;20054;-89
2023/10/29 03:31:33;;;;;;;1.80;0.68;;;;;;;-148.15;100.00;61821.78;4975103;28;20038;-88
2023/10/29 03:33:58;;;;;;;3.97;0.73;;;;;;;-148.15;100.00;61821.78;4974252;28;20071;-89
2023/10/29 03:36:23;;;;;;;4.30;0.80;;;;;;;-148.15;100.00;61821.78;4972982;28;20026;-89
2023/10/29 03:38:49;;;;;;;2.83;0.90;;;;;;;-148.15;100.00;61821.78;4972154;28;20038;-88
2023/10/29 03:41:22;;;;;;;6.50;0.70;;;;;;;-148.15;100.00;61821.78;4971843;28;20116;-89
2023/10/29 03:43:48;;;;;;;3.70;0.80;;;;;;;-148.15;100.00;61821.78;4970097;28;20046;-89
2023/10/29 03:46:13;;;;;;;1.67;0.70;;;;;;;-148.15;100.00;61821.78;4973401;28;20045;-88
2023/10/29 03:48:44;;;;;;;1.63;0.70;;;;;;;-148.15;100.00;61821.78;4972897;28;20375;-88
2023/10/29 03:51:10;;;;;;;2.95;0.70;;;;;;;-148.15;100.00;61821.78;4972724;28;20031;-87
2023/10/29 03:53:36;;;;;;;2.67;0.70;;;;;;;-148.15;100.00;61821.78;4973686;28;20031;-88
2023/10/29 03:56:01;;;;;;;3.50;0.80;;;;;;;-148.15;100.00;61821.78;4973832;28;20815;-88
2023/10/29 03:58:27;;;;;;;1.53;0.77;;;;;;;-148.15;100.00;61821.78;4970615;28;20022;-87
2023/10/29 04:00:52;;;;;;;2.05;0.98;;;;;;;-148.15;100.00;61821.78;4973979;28;20031;-87
2023/10/29 04:03:18;;;;;;;2.57;0.90;;;;;;;-148.15;100.00;61821.78;4973528;28;20619;-88
2023/10/29 04:05:43;;;;;;;1.47;0.60;;;;;;;-148.15;100.00;61821.78;4972713;28;20117;-88
2023/10/29 04:08:08;;;;;;;4.77;0.87;;;;;;;-148.15;100.00;61821.78;4972675;28;20615;-88
2023/10/29 04:10:34;;;;;;;2.15;0.75;;;;;;;-148.15;100.00;61821.78;4973364;28;20027;-87
2023/10/29 04:12:59;;;;;;;1.73;1.07;;;;;;;-148.15;100.00;61821.78;4972290;28;20088;-88
2023/10/29 04:15:25;;;;;;;2.90;0.77;;;;;;;-148.15;100.00;61821.78;4973031;28;20078;-87
2023/10/29 04:17:50;;;;;;;1.10;0.73;;;;;;;-148.15;100.00;61821.78;4972908;28;20140;-88
2023/10/29 04:20:16;;;;;;;4.97;0.90;;;;;;;-148.15;100.00;61821.78;4972933;28;20078;-88
2023/10/29 04:22:42;;;;;;;3.83;0.70;;;;;;;-148.15;100.00;61821.78;4970078;28;20043;-88
2023/10/29 04:25:08;;;;;;;1.88;1.08;;;;;;;-148.15;100.00;61821.78;4970382;28;20046;-88
2023/10/29 04:27:33;;;;;;;2.83;1.00;;;;;;;-148.15;100.00;61821.78;4972049;28;20042;-87
2023/10/29 04:29:58;;;;;;;2.73;0.80;;;;;;;-148.15;100.00;61821.78;4973374;28;20038;-88
2023/10/29 04:32:24;;;;;;;4.17;0.90;;;;;;;-148.15;100.00;61821.78;4974472;28;20035;-88
2023/10/29 04:34:49;;;;;;;5.13;0.90;;;;;;;-148.15;100.00;61821.78;4973090;28;20035;-87
2023/10/29 04:37:15;;;;;;;4.30;1.03;;;;;;;-148.15;100.00;61821.78;4972741;28;20066;-88
2023/10/29 04:39:42;;;;;;;0.93;0.67;;;;;;;-148.15;100.00;61821.78;4971249;28;20027;-89
2023/10/29 04:42:08;;;;;;;1.30;0.80;;;;;;;-148.15;100.00;61821.78;4972360;28;20038;-88
2023/10/29 04:44:33;;;;;;;2.63;0.73;;;;;;;-148.15;100.00;61821.78;4972833;28;20034;-88
2023/10/29 04:46:59;;;;;;;1.80;0.97;;;;;;;-148.15;100.00;61821.78;4971522;28;20317;-88
2023/10/29 04:49:26;;;;;;;5.90;1.10;;;;;;;-148.15;100.00;61821.78;4973052;28;20030;-87
2023/10/29 04:51:51;;;;;;;1.63;0.85;;;;;;;-148.15;100.00;61821.78;4972476;28;20029;-87
2023/10/29 04:54:16;;;;;;;2.57;1.03;;;;;;;-148.15;100.00;61821.78;4971036;28;20117;-87
2023/10/29 04:56:42;;;;;;;3.53;0.70;;;;;;;-148.15;100.00;61821.78;4968401;28;20035;-88
2023/10/29 04:59:07;;;;;;;4.40;1.10;;;;;;;-148.15;100.00;61821.78;4972949;28;20026;-87
2023/10/29 05:01:32;;;;;;;3.77;0.90;;;;;;;-148.15;100.00;61821.78;4971801;28;20031;-87
2023/10/29 05:03:58;;;;;;;2.90;0.95;;;;;;;-148.15;100.00;61821.78;4972671;28;20114;-87
2023/10/29 05:06:23;;;;;;;4.63;1.00;;;;;;;-148.15;100.00;61821.78;4972113;28;20046;-87
2023/10/29 05:08:51;;;;;;;3.03;0.80;;;;;;;-148.15;100.00;61821.78;4972617;28;20025;-89
2023/10/29 05:11:17;;;;;;;3.53;0.90;;;;;;;-148.15;100.00;61821.78;4968978;28;20050;-87
2023/10/29 05:13:42;;;;;;;4.07;0.80;;;;;;;-148.15;100.00;61821.78;4972425;28;20152;-90
2023/10/29 05:16:08;;;;;;;5.60;1.13;;;;;;;-148.15;100.00;61821.78;4971752;28;20035;-90
2023/10/29 05:18:34;;;;;;;2.60;0.90;;;;;;;-148.15;100.00;61821.78;4972026;28;20034;-89
2023/10/29 05:20:59;;;;;;;5.07;0.80;;;;;;;-148.15;100.00;61821.78;4972281;28;20489;-87
2023/10/29 05:23:24;;;;;;;4.03;1.13;;;;;;;-148.15;100.00;61821.78;4971741;28;20122;-87
2023/10/29 05:25:50;;;;;;;12.03;1.40;;;;;;;-148.15;100.00;61821.78;4968762;28;20290;-89
2023/10/29 05:28:16;;;;;;;6.23;1.20;;;;;;;-148.15;100.00;61821.78;4971906;28;20728;-88
2023/10/29 05:30:42;;;;;;;6.10;0.90;;;;;;;-148.15;100.00;61821.78;4969149;28;20038;-87
2023/10/29 05:33:07;;;;;;;5.97;1.00;;;;;;;-148.15;100.00;61821.78;4969191;28;20031;-88
2023/10/29 05:35:33;;;;;;;3.57;1.10;;;;;;;-148.15;100.00;61821.78;4967461;28;20619;-87
2023/10/29 05:37:58;;;;;;;1.92;0.70;;;;;;;-148.15;100.00;61821.78;4974146;28;20022;-87
2023/10/29 05:40:24;;;;;;;9.20;1.13;;;;;;;-148.15;100.00;61821.78;4970481;28;20181;-87
2023/10/29 05:42:50;;;;;;;4.83;1.03;;;;;;;-148.15;0.00;61821.78;4970029;28;20125;-87
2023/10/29 05:45:15;;;;;;;3.03;0.63;;;;;;;-148.15;100.00;61821.78;4970642;28;20892;-88
2023/10/29 05:47:40;;;;;;;4.87;0.90;;;;;;;-148.15;100.00;61821.78;4970219;28;20125;-88
2023/10/29 05:50:06;;;;;;;4.90;1.00;;;;;;;-148.15;100.00;61821.78;4971335;28;20411;-88
2023/10/29 05:52:32;;;;;;;4.20;0.77;;;;;;;-148.15;100.00;61821.78;4971277;28;20047;-88
2023/10/29 05:55:00;;;;;;;2.93;0.70;;;;;;;-148.15;100.00;61821.78;4969698;28;20503;-87
2023/10/29 05:57:25;;;;;;;2.30;0.95;;;;;;;-148.15;100.00;61821.78;4969957;28;21627;-88
2023/10/29 05:59:51;;;;;;;3.70;1.07;;;;;;;-148.15;100.00;61821.78;4970329;28;20034;-88
2023/10/29 06:02:16;;;;;;;2.87;0.90;;;;;;;-148.15;100.00;61821.78;4969920;28;20023;-88
2023/10/29 06:04:41;;;;;;;3.63;0.80;;;;;;;-148.15;100.00;61821.78;4969630;28;20031;-87
2023/10/29 06:07:08;;;;;;;4.20;1.08;;;;;;;-148.15;100.00;61821.78;4970289;28;20037;-87
2023/10/29 06:09:33;;;;;;;6.63;1.00;;;;;;;-148.15;100.00;61821.78;4968900;28;20043;-87
2023/10/29 06:11:58;;;;;;;4.13;0.70;;;;;;;-148.15;100.00;61821.78;4970859;28;20393;-87
2023/10/29 06:14:24;;;;;;;3.87;1.07;;;;;;;-148.15;100.00;61821.78;4969171;28;20126;-87
2023/10/29 06:16:55;;;;;;;8.97;1.50;;;;;;;-148.15;100.00;61821.78;4969532;28;20031;-87
2023/10/29 06:19:21;;;;;;;11.93;1.17;;;;;;;-148.15;100.00;99373.66;4970245;28;20035;-87
2023/10/29 06:21:46;;;;;;;6.93;1.17;;;;;;;-148.15;100.00;61821.78;4970539;28;20022;-87
2023/10/29 06:24:12;;;;;;;7.90;1.07;;;;;;;-148.15;100.00;61821.78;4972398;28;20031;-87
2023/10/29 06:26:37;;;;;;;8.13;1.10;;;;;;;-148.15;100.00;61821.78;4970073;28;20545;-87
2023/10/29 06:29:02;;;;;;;12.27;1.55;;;;;;;-148.15;100.00;61821.78;4970840;28;20027;-87
2023/10/29 06:31:29;;;;;;;6.27;1.17;;;;;;;-148.15;100.00;61821.78;4970552;28;20081;-87
2023/10/29 06:33:54;;;;;;;7.68;1.50;;;;;;;-148.15;100.00;61821.78;4969878;28;20043;-88
2023/10/29 06:36:19;;;;;;;6.80;1.20;;;;;;;-148.15;100.00;61821.78;4970405;28;20030;-87
2023/10/29 06:38:45;;;;;;;7.07;1.60;;;;;;;-148.15;100.00;61821.78;4968904;28;20039;-87
2023/10/29 06:41:10;;;;;;;9.83;1.30;;;;;;;-148.15;100.00;61821.78;4970943;28;20034;-88
2023/10/29 06:43:35;;;;;;;8.77;1.00;;;;;;;-148.15;100.00;61821.78;4969655;28;20161;-87
2023/10/29 06:46:01;;;;;;;6.87;1.13;;;;;;;-148.15;63.38;61821.78;4969202;28;20511;-88
2023/10/29 06:48:26;;;;;;;8.40;1.40;;;;;;;-148.15;100.00;61821.78;4970842;28;20023;-88
2023/10/29 06:50:51;;;;;;;8.87;1.37;;;;;;;-148.15;100.00;61821.78;4969931;28;20118;-83
2023/10/29 06:53:17;;;;;;;12.07;1.67;;;;;;;-148.15;100.00;61821.78;4969674;28;20031;-83
2023/10/29 06:55:43;;;;;;;7.47;1.63;;;;;;;-148.15;100.00;61821.78;4967136;28;20442;-82
2023/10/29 06:58:08;;;;;;;9.57;1.60;;;;;;;-148.15;100.00;77145.38;4969020;28;20029;-82
2023/10/29 07:00:34;;;;;;;11.67;1.40;;;;;;;-148.15;nan;61821.78;4967102;28;20121;-82
2023/10/29 07:02:59;;;;;;;10.65;1.45;;;;;;;-148.15;100.00;61821.78;4968305;28;20034;-82
2023/10/29 07:05:25;;;;;;;9.83;1.50;;;;;;;-148.15;100.00;61821.78;4965486;28;20031;-82
2023/10/29 07:07:51;;;;;;;8.02;1.50;;;;;;;-148.15;100.00;61821.78;4968626;28;20039;-82
2023/10/29 07:10:17;;;;;;;13.97;1.77;;;;;;;-148.15;100.00;61821.78;4973563;28;20364;-82
2023/10/29 07:12:42;;;;;;;9.40;1.40;;;;;;;;;;4971559;28;20082;-82
2023/10/29 07:15:09;;;;;;;11.93;1.40;;;;;;;-148.15;100.00;61821.78;4972704;28;20341;-82
2023/10/29 07:17:35;;;;;;;16.52;1.77;;;;;;;-148.15;100.00;61821.78;4973283;28;20031;-83
2023/10/29 07:20:00;;;;;;;9.03;1.37;;;;;;;-148.15;100.00;61821.78;4973796;28;20038;-83
2023/10/29 07:22:27;;;;;;;7.73;1.50;;;;;;;-148.15;100.00;61821.78;4973700;28;20470;-82
2023/10/29 07:24:52;;;;;;;15.23;1.70;;;;;;;-148.15;100.00;61821.78;4972070;28;20425;-83
2023/10/29 07:27:18;;;;;;;12.45;1.70;;;;;;;-148.15;100.00;61821.78;4972450;28;20695;-83
2023/10/29 07:29:43;;;;;;;9.23;1.97;;;;;;;-148.15;100.00;61821.78;4965346;28;20070;-83
2023/10/29 07:32:08;;;;;;;12.10;1.67;;;;;;;-148.15;100.00;61821.78;4964134;28;20033;-83
2023/10/29 07:34:34;;;;;;;13.53;1.70;;;;;;;-148.15;100.00;61821.78;4965779;28;20482;-82
2023/10/29 07:36:59;;;;;;;8.70;1.50;;;;;;;-148.15;100.00;61821.78;4966344;28;20482;-82
2023/10/29 07:39:25;;;;;;;5.67;1.47;;;;;;;-148.15;100.00;61821.78;4965971;28;20065;-82
2023/10/29 07:41:51;;;;;;;10.95;1.52;;;;;;;-148.15;100.00;61821.78;4966191;28;20041;-83
2023/10/29 07:44:16;;;;;;;18.83;2.10;;;;;;;-148.15;100.00;61821.78;4970186;28;20085;-82
2023/10/29 07:46:41;;;;;;;13.57;1.20;;;;;;;-148.15;100.00;61821.78;4970535;28;20358;-82
2023/10/29 07:49:07;;;;;;;9.90;1.80;;;;;;;-148.15;100.00;61821.78;4973233;28;20023;-82
2023/10/29 07:51:32;;;;;;;11.75;1.90;;;;;;;-148.15;100.00;61821.78;4966859;28;20582;-82
2023/10/29 07:53:58;;;;;;;8.40;1.47;;;;;;;-148.15;100.00;61821.78;4968764;28;20100;-82
2023/10/29 07:56:23;;;;;;;10.90;2.03;;;;;;;-148.15;100.00;61821.78;4974342;28;20097;-83
2023/10/29 07:58:48;;;;;;;7.65;1.70;;;;;;;-148.15;100.00;61821.78;4977294;28;20109;-83
2023/10/29 08:01:16;;;;;;;13.20;1.50;;;;;;;-148.15;100.00;61821.78;4972944;28;20471;-83
2023/10/29 08:03:42;;;;;;;8.98;1.60;;;;;;;-148.15;100.00;61821.78;4970421;28;20027;-84
2023/10/29 08:06:09;;;;;;;8.27;1.50;;;;;;;-148.15;100.00;61821.78;4972498;28;20026;-83
2023/10/29 08:08:34;;;;;;;10.75;1.58;;;;;;;-148.15;100.00;61821.78;4971986;28;20027;-83
2023/10/29 08:11:00;;;;;;;5.57;1.30;;;;;;;-148.15;100.00;61821.78;4971826;28;20081;-83
2023/10/29 08:13:25;;;;;;;14.27;1.50;;;;;;;-148.15;100.00;61821.78;4973010;28;20030;-84
2023/10/29 08:15:50;;;;;;;12.83;1.70;;;;;;;-148.15;100.00;61821.78;4970938;28;20073;-84
2023/10/29 08:18:16;;;;;;;10.40;1.50;;;;;;;-148.15;100.00;61821.78;4972997;28;20033;-84
2023/10/29 08:20:41;;;;;;;11.47;1.57;;;;;;;-148.15;100.00;61821.78;4972151;28;20112;-84
2023/10/29 08:23:07;;;;;;;13.18;1.50;;;;;;;-148.15;100.00;61821.78;4972262;28;20475;-84
2023/10/29 08:25:35;;;;;;;9.77;2.23;;;;;;;-148.15;100.00;61821.78;4970033;28;20030;-84
2023/10/29 08:28:00;;;;;;;10.50;1.70;;;;;;;-148.15;100.00;61821.78;4969335;28;20105;-84
2023/10/29 08:30:25;;;;;;;6.50;1.40;;;;;;;-148.15;100.00;61821.78;4972293;28;20109;-83
2023/10/29 08:32:51;;;;;;;9.40;1.50;;;;;;;-148.15;100.00;61821.78;4971965;28;20031;-84
2023/10/29 08:35:16;;;;;;;9.17;1.30;;;;;;;-148.15;100.00;61821.78;4971778;28;20461;-83
2023/10/29 08:37:41;;;;;;;5.82;1.00;;;;;;;-148.15;100.00;61821.78;4971917;28;20038;-83
2023/10/29 08:40:08;;;;;;;8.67;1.20;;;;;;;-148.15;100.00;61821.78;4972796;28;20030;-85
2023/10/29 08:42:33;;;;;;;7.15;1.30;;;;;;;-148.15;100.00;61821.78;4971289;28;20130;-84
2023/10/29 08:44:59;;;;;;;7.23;1.20;;;;;;;-148.15;100.00;61821.78;4971970;28;20122;-84
2023/10/29 08:47:28;;;;;;;8.40;1.33;;;;;;;-148.15;100.00;61821.78;4963942;28;20549;-85
2023/10/29 08:49:53;;;;;;;8.88;1.70;;;;;;;-148.15;100.00;61821.78;4969795;28;20027;-87
2023/10/29 08:52:18;;;;;;;11.93;1.37;;;;;;;-148.15;100.00;61821.78;4969107;28;20045;-85
2023/10/29 08:54:44;;;;;;;5.47;1.00;;;;;;;-148.15;100.00;61821.78;4968866;28;20521;-85
2023/10/29 08:57:10;;;;;;;10.90;1.40;;;;;;;-148.15;100.00;61821.78;4971505;28;20050;-83
2023/10/29 08:59:36;;;;;;;6.75;1.40;;;;;;;-148.15;100.00;61821.78;4969503;28;20054;-84
2023/10/29 09:02:01;;;;;;;5.57;1.20;;;;;;;-148.15;100.00;61821.78;4971555;28;20037;-84
2023/10/29 09:04:26;;;;;;;8.50;1.43;;;;;;;-148.15;100.00;61821.78;4971087;28;20041;-84
2023/10/29 09:06:52;;;;;;;9.00;1.40;;;;;;;-148.15;100.00;61821.78;4970050;28;20038;-83
2023/10/29 09:09:17;;;;;;;10.57;1.20;;;;;;;-148.15;100.00;61821.78;4970019;28;20126;-84
2023/10/29 09:11:44;;;;;;;7.75;1.48;;;;;;;-148.15;100.00;61821.78;4969092;28;20094;-83
2023/10/29 09:14:13;;;;;;;7.35;1.50;;;;;;;-148.15;100.00;61821.78;4971689;28;20027;-84
2023/10/29 09:16:38;;;;;;;9.47;1.33;;;;;;;-148.15;100.00;61821.78;4970319;28;20487;-84
2023/10/29 09:19:03;;;;;;;4.13;1.30;;;;;;;-148.15;100.00;61821.78;4971091;28;20027;-84
2023/10/29 09:21:29;;;;;;;6.00;1.33;;;;;;;-148.15;100.00;61821.78;4970494;28;20497;-84
2023/10/29 09:23:54;;;;;;;11.73;1.40;;;;;;;-148.15;100.00;61821.78;4970510;28;20035;-84
2023/10/29 09:26:19;;;;;;;6.87;1.73;;;;;;;-148.15;100.00;61821.78;4970150;28;20031;-82
2023/10/29 09:28:44;;;;;;;9.03;1.67;;;;;;;-148.15;100.00;61821.78;4970829;28;20038;-84
2023/10/29 09:31:17;;;;;;;12.47;1.60;;;;;;;-148.15;100.00;61821.78;4966094;28;20063;-83
2023/10/29 09:33:43;;;;;;;5.57;1.40;;;;;;;-148.15;100.00;61821.78;4969993;28;20490;-83
2023/10/29 09:36:08;;;;;;;9.85;1.52;;;;;;;-148.15;100.00;61821.78;4969415;28;20058;-84
2023/10/29 09:38:33;;;;;;;6.47;1.43;;;;;;;-148.15;100.00;61821.78;4969569;28;20035;-86
2023/10/29 09:40:59;;;;;;;7.27;1.20;;;;;;;-148.15;100.00;61821.78;4970148;28;20023;-82
2023/10/29 09:43:31;;;;;;;10.25;1.42;;;;;;;-148.15;100.00;61821.78;4971190;28;20114;-84
2023/10/29 09:45:58;;;;;;;8.93;1.60;;;;;;;-148.15;100.00;61821.78;4970341;28;20029;-85
2023/10/29 09:48:25;;;;;;;6.72;1.27;;;;;;;-148.15;100.00;61821.78;4973467;28;20053;-83
2023/10/29 09:50:50;;;;;;;7.25;1.50;;;;;;;-148.15;100.00;61821.78;4975346;28;20077;-85
2023/10/29 09:53:18;;;;;;;5.37;1.30;;;;;;;-148.15;100.00;61821.78;4968292;28;20018;-84
2023/10/29 09:55:44;;;;;;;7.30;1.10;;;;;;;-148.15;100.00;61821.78;4968861;28;20302;-84
2023/10/29 09:58:09;;;;;;;6.82;1.33;;;;;;;-148.15;100.00;61821.78;4971447;28;20080;-84
2023/10/29 10:00:36;;;;;;;9.50;1.33;;;;;;;-148.15;100.00;61821.78;4970867;28;20019;-83
2023/10/29 10:03:01;;;;;;;6.28;1.30;;;;;;;-148.15;100.00;61821.78;4971204;28;20102;-84
2023/10/29 10:05:28;;;;;;;13.63;1.38;;;;;;;-148.15;100.00;61821.78;4968328;28;20543;-86
2023/10/29 10:07:57;;;;;;;18.65;1.70;;;;;;;-148.15;100.00;61821.78;4969304;28;20109;-83
2023/10/29 10:10:44;;;;;;;12.00;1.70;;;;;;;-148.15;100.00;61821.78;4969899;28;20081;-83
2023/10/29 10:13:10;;;;;;;9.63;1.25;;;;;;;-148.15;100.00;61821.78;4970860;28;20038;-84
2023/10/29 10:15:38;;;;;;;7.13;1.70;;;;;;;-148.15;100.00;61821.78;4970400;28;20026;-85
2023/10/29 10:18:05;;;;;;;6.60;1.38;;;;;;;-148.15;100.00;61821.78;4970991;28;20595;-83
2023/10/29 10:20:32;;;;;;;5.97;1.10;;;;;;;-148.15;100.00;61821.78;4970485;28;20030;-84
2023/10/29 10:23:05;;;;;;;6.70;1.40;;;;;;;-148.15;100.00;61821.78;4969050;28;20125;-82
2023/10/29 10:25:32;;;;;;;11.95;1.42;;;;;;;-148.15;100.00;61821.78;4969472;28;20019;-84
2023/10/29 10:27:58;;;;;;;7.30;1.50;;;;;;;-148.15;100.00;61821.78;4970444;28;20517;-85
2023/10/29 10:30:29;;;;;;;6.55;1.38;;;;;;;-148.15;100.00;61821.78;4969336;28;20030;-86
2023/10/29 10:33:14;;;;;;;6.35;1.45;;;;;;;-148.15;100.00;61821.78;4968928;28;20497;-85
2023/10/29 10:35:47;;;;;;;7.30;1.33;;;;;;;-148.15;100.00;61821.78;4969452;28;20055;-85
2023/10/29 10:38:14;;;;;;;18.20;1.67;;;;;;;-148.15;100.00;61821.78;4971109;28;20317;-85
2023/10/29 10:40:40;;;;;;;9.73;1.52;;;;;;;-148.15;100.00;61821.78;4970638;28;20462;-85
2023/10/29 10:43:08;;;;;;;6.83;1.23;;;;;;;-148.15;100.00;61821.78;4970336;28;20058;-85
2023/10/29 10:45:36;;;;;;;7.53;1.87;;;;;;;-148.15;100.00;61821.78;4973323;28;20305;-85
2023/10/29 10:48:04;;;;;;;9.90;1.40;;;;;;;-148.15;100.00;61821.78;4973486;28;20412;-86
2023/10/29 10:50:30;;;;;;;4.90;1.38;;;;;;;-148.15;100.00;61821.78;4973137;28;20081;-86
2023/10/29 10:52:56;;;;;;;9.95;1.63;;;;;;;-148.15;100.00;61821.78;4973344;28;20446;-84
2023/10/29 10:55:25;;;;;;;10.27;1.92;;;;;;;-148.15;100.00;61821.78;4974485;28;20035;-85
2023/10/29 10:57:51;;;;;;;7.83;1.73;;;;;;;-148.15;100.00;61821.78;4972004;28;20083;-85
2023/10/29 11:00:18;;;;;;;8.40;1.75;;;;;;;-148.15;100.00;61821.78;4973801;28;20035;-85
2023/10/29 11:02:45;;;;;;;6.13;1.30;;;;;;;-148.15;100.00;61821.78;4973434;28;20023;-85